Time;durP1;ratioP1;P1;durP2;ratioP2;P2;SDS_P1;SDS_P2;PMS_P1;PMS_P2;Temp;Humidity;BMP_temperature;BMP_pressure;BME280_temperature;BME280_humidity;BME280_pressure;Samples;Min_cycle;Max_cycle;Signal;HPM_P1;HPM_P2
2023/06/24 00:01:06;;;;;;;16.87;12.30;;;;;;;;;;5075953;28;20481;-80
2023/06/24 00:03:37;;;;;;;13.47;12.07;;;;;;;;;;5075794;28;20502;-80
2023/06/24 00:06:08;;;;;;;14.20;11.00;;;;;;;;;;5077796;28;20463;-80
2023/06/24 00:08:36;;;;;;;16.70;11.37;;;;;;;;;;5074796;28;20463;-80
2023/06/24 00:11:05;;;;;;;16.87;13.07;;;;;;;;;;5082255;28;20475;-80
2023/06/24 00:13:32;;;;;;;15.37;12.80;;;;;;;;;;5070419;28;20443;-80
2023/06/24 00:15:59;;;;;;;18.03;12.17;;;;;;;;;;5071442;28;20471;-80
2023/06/24 00:18:29;;;;;;;15.27;10.83;;;;;;;;;;5078394;28;20485;-81
2023/06/24 00:20:55;;;;;;;16.47;12.80;;;;;;;;;;5075992;28;20479;-81
2023/06/24 00:23:24;;;;;;;15.90;11.30;;;;;;;;;;5080947;28;20991;-80
2023/06/24 00:25:51;;;;;;;13.73;11.90;;;;;;;;;;5077005;28;20526;-80
2023/06/24 00:28:18;;;;;;;13.83;12.37;;;;;;;;;;5087937;28;20462;-80
2023/06/24 00:30:45;;;;;;;15.13;11.90;;;;;;;;;;5082861;28;20448;-80
2023/06/24 00:33:13;;;;;;;15.57;11.63;;;;;;;;;;5085010;28;20947;-80
2023/06/24 00:35:39;;;;;;;14.03;11.83;;;;;;;;;;5074051;28;20467;-81
2023/06/24 00:38:05;;;;;;;15.13;12.60;;;;;;;;;;5077042;28;20474;-80
2023/06/24 00:40:32;;;;;;;15.90;12.63;;;;;;;;;;5079486;28;21013;-81
2023/06/24 00:42:59;;;;;;;14.63;10.30;;;;;;;;;;5079192;28;20487;-80
2023/06/24 00:45:27;;;;;;;12.20;11.00;;;;;;;;;;5076365;28;20463;-81
2023/06/24 00:47:54;;;;;;;17.80;12.20;;;;;;;;;;5076403;28;20470;-80
2023/06/24 00:50:21;;;;;;;12.27;10.27;;;;;;;;;;5072684;28;20478;-81
2023/06/24 00:52:48;;;;;;;15.70;11.40;;;;;;;;;;5081931;28;20459;-80
2023/06/24 00:55:15;;;;;;;14.10;10.53;;;;;;;;;;5082470;28;21021;-81
2023/06/24 00:57:42;;;;;;;13.03;11.77;;;;;;;;;;5078822;28;20481;-80
2023/06/24 01:00:13;;;;;;;14.30;11.37;;;;;;;;;;5077333;28;20463;-81
2023/06/24 01:02:42;;;;;;;13.03;11.50;;;;;;;;;;5081792;28;20550;-81
2023/06/24 01:05:08;;;;;;;15.10;11.87;;;;;;;;;;5078228;28;20565;-81
2023/06/24 01:07:37;;;;;;;13.23;10.60;;;;;;;;;;5081562;28;20548;-81
2023/06/24 01:10:05;;;;;;;13.63;11.80;;;;;;;;;;5080811;28;20461;-81
2023/06/24 01:12:31;;;;;;;16.63;12.87;;;;;;;;;;5077790;28;20435;-81
2023/06/24 01:14:58;;;;;;;14.20;12.33;;;;;;;;;;5085646;28;20463;-81
2023/06/24 01:17:28;;;;;;;13.47;11.13;;;;;;;;;;5075315;28;20486;-81
2023/06/24 01:20:09;;;;;;;16.07;11.33;;;;;;;;;;5082167;28;20461;-81
2023/06/24 01:22:49;;;;;;;16.47;12.07;;;;;;;;;;5078754;28;20467;-81
2023/06/24 01:25:22;;;;;;;18.50;13.20;;;;;;;;;;5080910;28;20473;-82
2023/06/24 01:28:08;;;;;;;16.00;13.47;;;;;;;;;;5081556;28;20964;-80
2023/06/24 01:30:52;;;;;;;16.67;14.07;;;;;;;;;;5077807;28;20470;-80
2023/06/24 01:33:23;;;;;;;14.13;12.33;;;;;;;;;;5080237;28;20537;-80
2023/06/24 01:35:50;;;;;;;19.47;14.17;;;;;;;;;;5087503;28;20463;-81
2023/06/24 01:38:24;;;;;;;17.67;12.20;;;;;;;;;;5076830;28;20470;-80
2023/06/24 01:40:51;;;;;;;17.03;15.00;;;;;;;;;;5080303;28;20469;-80
2023/06/24 01:43:18;;;;;;;19.03;13.20;;;;;;;;;;5078266;28;20482;-80
2023/06/24 01:45:47;;;;;;;19.40;14.70;;;;;;;;;;5075295;28;20482;-81
2023/06/24 01:48:14;;;;;;;15.73;12.63;;;;;;;;;;5080485;28;20478;-81
2023/06/24 01:50:44;;;;;;;13.70;12.20;;;;;;;;;;5070836;28;20467;-80
2023/06/24 01:53:13;;;;;;;16.03;13.87;;;;;;;;;;5088252;28;20450;-80
2023/06/24 01:55:42;;;;;;;17.17;13.80;;;;;;;;;;5076927;28;20473;-80
2023/06/24 01:58:09;;;;;;;18.30;13.27;;;;;;;;;;5075988;28;20822;-80
2023/06/24 02:00:36;;;;;;;15.53;12.83;;;;;;;;;;5078044;28;20467;-80
2023/06/24 02:03:04;;;;;;;18.37;14.00;;;;;;;;;;5078810;28;20854;-81
2023/06/24 02:05:32;;;;;;;16.57;13.70;;;;;;;;;;5073820;28;20481;-80
2023/06/24 02:08:01;;;;;;;15.63;13.03;;;;;;;;;;5078578;28;20483;-80
2023/06/24 02:10:28;;;;;;;15.50;12.60;;;;;;;;;;5077982;28;20471;-80
2023/06/24 02:12:54;;;;;;;15.30;12.67;;;;;;;;;;5075468;28;20467;-80
2023/06/24 02:15:22;;;;;;;17.77;13.17;;;;;;;;;;5080779;28;21014;-80
2023/06/24 02:17:50;;;;;;;14.40;12.73;;;;;;;;;;5074899;28;20463;-80
2023/06/24 02:20:17;;;;;;;18.53;14.23;;;;;;;;;;5082032;28;20456;-80
2023/06/24 02:22:45;;;;;;;20.27;13.23;;;;;;;;;;5072426;28;20495;-80
2023/06/24 02:25:12;;;;;;;14.67;11.80;;;;;;;;;;5071038;28;20445;-80
2023/06/24 02:27:40;;;;;;;18.40;14.23;;;;;;;;;;5083907;28;20456;-80
2023/06/24 02:30:08;;;;;;;18.83;13.50;;;;;;;;;;5078640;28;20445;-80
2023/06/24 02:32:35;;;;;;;16.57;12.80;;;;;;;;;;5069499;28;20462;-80
2023/06/24 02:35:02;;;;;;;19.77;14.87;;;;;;;;;;5082406;28;20448;-80
2023/06/24 02:37:28;;;;;;;16.83;14.97;;;;;;;;;;5080918;28;20452;-80
2023/06/24 02:39:55;;;;;;;20.30;16.17;;;;;;;;;;5078124;28;20469;-80
2023/06/24 02:42:23;;;;;;;18.43;14.27;;;;;;;;;;5079587;28;20451;-80
2023/06/24 02:44:49;;;;;;;28.07;15.97;;;;;;;;;;5082915;28;20911;-80
2023/06/24 02:47:16;;;;;;;15.70;13.60;;;;;;;;;;5084198;28;20451;-80
2023/06/24 02:49:46;;;;;;;18.57;14.47;;;;;;;;;;5088101;28;20420;-80
2023/06/24 02:52:12;;;;;;;18.60;12.80;;;;;;;;;;5077274;28;20459;-80
2023/06/24 02:54:40;;;;;;;17.77;15.50;;;;;;;;;;5084406;28;20807;-80
2023/06/24 02:57:08;;;;;;;18.10;14.57;;;;;;;;;;5073989;28;20484;-80
2023/06/24 02:59:37;;;;;;;15.90;13.67;;;;;;;;;;5076908;28;20447;-80
2023/06/24 03:02:04;;;;;;;17.50;14.07;;;;;;;;;;5083719;28;20824;-80
2023/06/24 03:04:31;;;;;;;20.63;13.73;;;;;;;;;;5076038;28;20452;-80
2023/06/24 03:06:59;;;;;;;15.87;13.93;;;;;;;;;;5073730;28;20800;-80
2023/06/24 03:09:25;;;;;;;18.83;15.40;;;;;;;;;;5087019;28;20835;-80
2023/06/24 03:11:52;;;;;;;18.57;13.60;;;;;;;;;;5072338;28;20454;-80
2023/06/24 03:14:19;;;;;;;17.87;12.67;;;;;;;;;;5083175;28;20425;-80
2023/06/24 03:16:47;;;;;;;18.63;14.53;;;;;;;;;;5078901;28;20464;-80
2023/06/24 03:19:13;;;;;;;19.17;13.40;;;;;;;;;;5083799;28;20427;-80
2023/06/24 03:21:40;;;;;;;18.87;14.17;;;;;;;;;;5072927;28;20906;-80
2023/06/24 03:24:07;;;;;;;15.97;13.20;;;;;;;;;;5083539;28;20548;-80
2023/06/24 03:26:35;;;;;;;19.10;15.10;;;;;;;;;;5083801;28;20452;-80
2023/06/24 03:29:01;;;;;;;18.47;13.90;;;;;;;;;;5081452;28;20460;-80
2023/06/24 03:31:27;;;;;;;20.93;15.20;;;;;;;;;;5078508;28;20913;-81
2023/06/24 03:33:55;;;;;;;18.40;13.60;;;;;;;;;;5082202;28;21058;-80
2023/06/24 03:36:21;;;;;;;16.80;12.47;;;;;;;;;;5070998;28;20482;-80
2023/06/24 03:38:48;;;;;;;19.00;13.40;;;;;;;;;;5074830;28;20471;-80
2023/06/24 03:41:14;;;;;;;17.50;13.00;;;;;;;;;;5070308;28;20504;-80
2023/06/24 03:43:41;;;;;;;16.27;13.10;;;;;;;;;;5068578;28;20457;-79
2023/06/24 03:46:08;;;;;;;17.97;12.47;;;;;;;;;;5073514;28;20525;-79
2023/06/24 03:48:34;;;;;;;16.60;14.90;;;;;;;;;;5077431;28;20476;-79
2023/06/24 03:51:03;;;;;;;18.57;13.00;;;;;;;;;;5073528;28;20478;-79
2023/06/24 03:53:29;;;;;;;20.23;16.10;;;;;;;;;;5080579;28;20413;-80
2023/06/24 03:55:56;;;;;;;19.97;15.50;;;;;;;;;;5065856;28;20569;-80
2023/06/24 03:58:22;;;;;;;18.10;15.00;;;;;;;;;;5061072;28;20804;-80
2023/06/24 04:00:49;;;;;;;17.67;14.00;;;;;;;;;;5082101;28;20477;-81
2023/06/24 04:03:15;;;;;;;16.60;13.77;;;;;;;;;;5071974;28;20487;-79
2023/06/24 04:05:42;;;;;;;17.57;14.00;;;;;;;;;;5076159;28;20454;-80
2023/06/24 04:08:09;;;;;;;19.70;14.90;;;;;;;;;;5091404;28;20445;-79
2023/06/24 04:10:36;;;;;;;23.83;16.20;;;;;;;;;;5077606;28;20468;-78
2023/06/24 04:13:02;;;;;;;21.87;15.80;;;;;;;;;;5079178;28;20420;-80
2023/06/24 04:15:29;;;;;;;20.97;16.57;;;;;;;;;;5084798;28;20452;-79
2023/06/24 04:17:55;;;;;;;20.33;15.73;;;;;;;;;;5090105;28;20440;-80
2023/06/24 04:20:22;;;;;;;18.47;15.63;;;;;;;;;;5083027;28;21003;-80
2023/06/24 04:22:48;;;;;;;18.70;14.80;;;;;;;;;;5085822;28;20436;-80
2023/06/24 04:25:16;;;;;;;19.40;16.00;;;;;;;;;;5084910;28;20848;-80
2023/06/24 04:27:42;;;;;;;21.07;16.30;;;;;;;;;;5076280;28;20485;-80
2023/06/24 04:30:09;;;;;;;23.60;16.73;;;;;;;;;;5078093;28;20437;-80
2023/06/24 04:32:36;;;;;;;22.60;16.40;;;;;;;;;;5077818;28;20421;-80
2023/06/24 04:35:05;;;;;;;21.83;16.00;;;;;;;;;;5071545;28;20467;-80
2023/06/24 04:37:31;;;;;;;22.13;15.80;;;;;;;;;;5075476;28;20713;-80
2023/06/24 04:39:57;;;;;;;35.33;18.80;;;;;;;;;;5064892;28;20470;-81
2023/06/24 04:42:25;;;;;;;27.00;18.43;;;;;;;;;;5077530;28;20444;-80
2023/06/24 04:44:52;;;;;;;22.90;16.57;;;;;;;;;;5072164;28;21338;-80
2023/06/24 04:47:18;;;;;;;19.90;15.60;;;;;;;;;;5079127;28;20476;-80
2023/06/24 04:49:44;;;;;;;28.97;20.27;;;;;;;;;;5073655;28;20448;-81
2023/06/24 04:52:11;;;;;;;29.30;21.13;;;;;;;;;;5086109;28;20417;-80
2023/06/24 04:54:37;;;;;;;30.53;20.57;;;;;;;;;;5077966;28;20429;-81
2023/06/24 04:57:10;;;;;;;27.80;20.30;;;;;;;;;;5074060;28;20429;-80
2023/06/24 04:59:39;;;;;;;33.90;20.90;;;;;;;;;;5079439;28;20401;-81
2023/06/24 05:02:05;;;;;;;30.70;21.63;;;;;;;;;;5072766;28;21027;-80
2023/06/24 05:04:32;;;;;;;48.23;22.60;;;;;;;;;;5075861;28;20475;-80
2023/06/24 05:06:58;;;;;;;32.00;22.60;;;;;;;;;;5082851;28;20929;-80
2023/06/24 05:09:24;;;;;;;32.40;23.33;;;;;;;;;;5082089;28;20421;-80
2023/06/24 05:11:51;;;;;;;32.03;23.93;;;;;;;;;;5083719;28;20436;-80
2023/06/24 05:14:17;;;;;;;29.33;22.67;;;;;;;;;;5086842;28;20438;-81
2023/06/24 05:16:45;;;;;;;31.13;22.30;;;;;;;;;;5085328;28;20853;-80
2023/06/24 05:19:12;;;;;;;33.30;22.90;;;;;;;;;;5076402;28;20478;-80
2023/06/24 05:21:38;;;;;;;32.80;21.97;;;;;;;;;;5081980;28;20471;-80
2023/06/24 05:24:05;;;;;;;29.00;21.40;;;;;;;;;;5079643;28;20869;-80
2023/06/24 05:26:31;;;;;;;30.43;22.80;;;;;;;;;;5073061;28;20471;-81
2023/06/24 05:28:58;;;;;;;32.37;24.43;;;;;;;;;;5077559;28;20470;-80
2023/06/24 05:31:24;;;;;;;29.13;21.60;;;;;;;;;;5085724;28;20462;-81
2023/06/24 05:33:52;;;;;;;28.10;21.60;;;;;;;;;;5082840;28;20929;-80
2023/06/24 05:36:18;;;;;;;31.13;21.60;;;;;;;;;;5080357;28;20471;-80
2023/06/24 05:38:44;;;;;;;30.33;22.60;;;;;;;;;;5084204;28;21009;-80
2023/06/24 05:41:11;;;;;;;33.13;20.90;;;;;;;;;;5076920;28;20955;-81
2023/06/24 05:43:37;;;;;;;26.70;21.00;;;;;;;;;;5069052;28;20486;-81
2023/06/24 05:46:04;;;;;;;23.93;17.77;;;;;;;;;;5083507;28;20470;-81
2023/06/24 05:48:30;;;;;;;28.20;19.40;;;;;;;;;;5087086;28;20514;-80
2023/06/24 05:50:58;;;;;;;28.03;19.00;;;;;;;;;;5078830;28;20459;-81
2023/06/24 05:53:25;;;;;;;26.30;18.30;;;;;;;;;;5077695;28;20441;-80
2023/06/24 05:55:52;;;;;;;26.23;19.13;;;;;;;;;;5081111;28;20848;-80
2023/06/24 05:58:18;;;;;;;27.00;18.13;;;;;;;;;;5080893;28;20943;-80
2023/06/24 06:00:46;;;;;;;24.77;19.20;;;;;;;;;;5084032;28;20472;-79
2023/06/24 06:03:12;;;;;;;26.13;20.10;;;;;;;;;;5096142;28;20430;-80
2023/06/24 06:05:39;;;;;;;21.13;16.27;;;;;;;;;;5087434;28;20481;-80
2023/06/24 06:08:06;;;;;;;24.43;17.53;;;;;;;;;;5080250;28;20467;-80
2023/06/24 06:10:33;;;;;;;20.00;16.80;;;;;;;;;;5069462;28;20505;-80
2023/06/24 06:13:00;;;;;;;22.63;16.93;;;;;;;;;;5079389;28;20466;-80
2023/06/24 06:15:27;;;;;;;21.43;14.90;;;;;;;;;;5074476;28;20474;-80
2023/06/24 06:17:53;;;;;;;25.70;16.17;;;;;;;;;;5081918;28;20962;-80
2023/06/24 06:20:19;;;;;;;27.87;15.97;;;;;;;;;;5074737;28;20466;-81
2023/06/24 06:22:46;;;;;;;19.37;15.20;;;;;;;;;;5078421;28;20486;-81
2023/06/24 06:25:14;;;;;;;21.10;15.17;;;;;;;;;;5084175;28;20481;-80
2023/06/24 06:27:40;;;;;;;17.30;13.93;;;;;;;;;;5085435;28;20528;-80
2023/06/24 06:30:07;;;;;;;18.90;15.60;;;;;;;;;;5082118;28;20470;-80
2023/06/24 06:32:34;;;;;;;20.40;15.40;;;;;;;;;;5086932;28;20466;-81
2023/06/24 06:35:00;;;;;;;18.33;13.90;;;;;;;;;;5081074;28;20469;-80
2023/06/24 06:37:27;;;;;;;16.70;13.03;;;;;;;;;;5087009;28;20470;-80
2023/06/24 06:39:53;;;;;;;17.87;13.13;;;;;;;;;;5086620;28;20461;-80
2023/06/24 06:42:21;;;;;;;17.17;14.30;;;;;;;;;;5075892;28;20466;-80
2023/06/24 06:44:47;;;;;;;13.83;12.37;;;;;;;;;;5083542;28;20814;-80
2023/06/24 06:47:14;;;;;;;17.23;13.93;;;;;;;;;;5073375;28;20473;-79
2023/06/24 06:49:40;;;;;;;16.40;13.33;;;;;;;;;;5073164;28;20455;-79
2023/06/24 06:52:07;;;;;;;18.70;13.47;;;;;;;;;;5077903;28;20468;-79
2023/06/24 06:54:33;;;;;;;22.93;11.50;;;;;;;;;;5074731;28;20443;-80
2023/06/24 06:57:01;;;;;;;14.53;11.97;;;;;;;;;;5073199;28;20451;-79
2023/06/24 06:59:29;;;;;;;13.27;11.00;;;;;;;;;;5081929;28;20457;-80
2023/06/24 07:01:55;;;;;;;14.90;12.87;;;;;;;;;;5075738;28;20471;-81
2023/06/24 07:04:21;;;;;;;12.47;10.33;;;;;;;;;;5081322;28;20848;-79
2023/06/24 07:06:47;;;;;;;12.60;9.13;;;;;;;;;;5076146;28;21003;-79
2023/06/24 07:09:14;;;;;;;11.17;9.97;;;;;;;;;;5076941;28;20462;-80
2023/06/24 07:11:41;;;;;;;12.53;9.90;;;;;;;;;;5086945;28;20843;-79
2023/06/24 07:14:07;;;;;;;11.77;8.23;;;;;;;;;;5076318;28;20946;-79
2023/06/24 07:16:35;;;;;;;12.60;8.50;;;;;;;;;;5080951;28;20477;-80
2023/06/24 07:19:01;;;;;;;10.23;8.07;;;;;;;;;;5073389;28;20459;-80
2023/06/24 07:21:27;;;;;;;11.10;7.53;;;;;;;;;;5084186;28;20485;-80
2023/06/24 07:23:54;;;;;;;15.73;8.77;;;;;;;;;;5077260;28;20848;-79
2023/06/24 07:26:20;;;;;;;8.93;8.10;;;;;;;;;;5081530;28;20467;-79
2023/06/24 07:28:48;;;;;;;8.20;7.37;;;;;;;;;;5089632;28;20470;-79
2023/06/24 07:31:14;;;;;;;8.00;6.63;;;;;;;;;;5076723;28;20493;-79
2023/06/24 07:33:42;;;;;;;9.67;8.40;;;;;;;;;;5080605;28;20848;-79
2023/06/24 07:36:08;;;;;;;11.40;7.97;;;;;;;;;;5074059;28;20467;-79
2023/06/24 07:38:35;;;;;;;11.40;7.93;;;;;;;;;;5085719;28;20476;-79
2023/06/24 07:41:01;;;;;;;8.60;7.80;;;;;;;;;;5074559;28;20474;-80
2023/06/24 07:43:27;;;;;;;9.80;7.70;;;;;;;;;;5089261;28;20951;-79
2023/06/24 07:45:54;;;;;;;8.20;6.80;;;;;;;;;;5089607;28;20481;-80
2023/06/24 07:48:20;;;;;;;8.23;6.40;;;;;;;;;;5078064;28;20478;-80
2023/06/24 07:50:48;;;;;;;9.73;7.13;;;;;;;;;;5082251;28;20471;-79
2023/06/24 07:53:14;;;;;;;9.83;7.50;;;;;;;;;;5081556;28;20548;-79
2023/06/24 07:55:41;;;;;;;12.83;8.83;;;;;;;;;;5081177;28;20474;-80
2023/06/24 07:58:07;;;;;;;9.70;6.97;;;;;;;;;;5082762;28;20468;-79
2023/06/24 08:00:34;;;;;;;11.13;7.73;;;;;;;;;;5086420;28;20470;-79
2023/06/24 08:03:00;;;;;;;9.07;6.77;;;;;;;;;;5081859;28;20469;-79
2023/06/24 08:05:26;;;;;;;8.83;7.87;;;;;;;;;;5073397;28;20474;-79
2023/06/24 08:07:54;;;;;;;9.57;7.10;;;;;;;;;;5073767;28;20474;-79
2023/06/24 08:10:22;;;;;;;7.17;6.50;;;;;;;;;;5077723;28;20473;-79
2023/06/24 08:12:50;;;;;;;7.50;6.67;;;;;;;;;;5089895;28;20469;-80
2023/06/24 08:15:16;;;;;;;8.17;6.73;;;;;;;;;;5084136;28;20822;-79
2023/06/24 08:17:43;;;;;;;8.93;6.63;;;;;;;;;;5083946;28;20466;-80
2023/06/24 08:20:10;;;;;;;8.87;5.70;;;;;;;;;;5081040;28;20471;-80
2023/06/24 08:22:37;;;;;;;7.80;6.97;;;;;;;;;;5080699;28;20958;-80
2023/06/24 08:25:05;;;;;;;8.17;6.73;;;;;;;;;;5085421;28;20544;-79
2023/06/24 08:27:31;;;;;;;9.57;7.23;;;;;;;;;;5083446;28;20493;-80
2023/06/24 08:29:58;;;;;;;9.70;6.10;;;;;;;;;;5080813;28;20462;-80
2023/06/24 08:32:24;;;;;;;7.40;6.70;;;;;;;;;;5083382;28;20442;-80
2023/06/24 08:34:51;;;;;;;7.43;6.77;;;;;;;;;;5055246;28;20440;-80
2023/06/24 08:37:17;;;;;;;7.43;6.37;;;;;;;;;;5077170;28;20466;-80
2023/06/24 08:39:43;;;;;;;8.40;6.57;;;;;;;;;;5082245;28;20451;-80
2023/06/24 08:42:11;;;;;;;7.63;6.70;;;;;;;;;;5075268;28;20948;-80
2023/06/24 08:44:38;;;;;;;10.03;7.03;;;;;;;;;;5078569;28;20516;-80
2023/06/24 08:47:05;;;;;;;8.10;6.70;;;;;;;;;;5083385;28;20483;-79
2023/06/24 08:49:31;;;;;;;10.30;7.50;;;;;;;;;;5051746;28;20999;-80
2023/06/24 08:52:01;;;;;;;7.00;6.33;;;;;;;;;;5078654;28;20486;-79
2023/06/24 08:54:27;;;;;;;8.33;6.60;;;;;;;;;;5081123;28;21002;-79
2023/06/24 08:56:54;;;;;;;11.63;6.63;;;;;;;;;;5090971;28;20465;-80
2023/06/24 08:59:22;;;;;;;6.93;6.30;;;;;;;;;;5075665;28;20447;-80
2023/06/24 09:01:49;;;;;;;7.57;6.87;;;;;;;;;;5075865;28;21006;-80
2023/06/24 09:04:15;;;;;;;7.17;6.47;;;;;;;;;;5073982;28;20828;-80
2023/06/24 09:06:42;;;;;;;9.13;6.93;;;;;;;;;;5071776;28;20479;-80
2023/06/24 09:09:18;;;;;;;8.27;6.83;;;;;;;;;;5072924;28;20501;-80
2023/06/24 09:11:51;;;;;;;8.47;7.60;;;;;;;;;;5075705;28;20477;-80
2023/06/24 09:14:18;;;;;;;9.67;6.83;;;;;;;;;;5085304;28;20450;-79
2023/06/24 09:16:51;;;;;;;10.17;7.00;;;;;;;;;;5075266;28;20564;-80
2023/06/24 09:19:20;;;;;;;8.73;6.30;;;;;;;;;;5084517;28;20458;-79
2023/06/24 09:21:47;;;;;;;10.03;7.73;;;;;;;;;;5090539;28;20476;-79
2023/06/24 09:24:13;;;;;;;9.97;7.63;;;;;;;;;;5084877;28;20443;-80
2023/06/24 09:26:43;;;;;;;10.90;7.20;;;;;;;;;;5079604;28;20477;-80
2023/06/24 09:29:09;;;;;;;11.50;7.80;;;;;;;;;;5089936;28;20468;-79
2023/06/24 09:31:35;;;;;;;8.13;7.10;;;;;;;;;;5076884;28;20540;-80
2023/06/24 09:34:03;;;;;;;11.07;7.93;;;;;;;;;;5083854;28;20461;-80
2023/06/24 09:36:29;;;;;;;8.60;7.60;;;;;;;;;;5082700;28;20855;-79
2023/06/24 09:38:58;;;;;;;12.93;8.40;;;;;;;;;;5077273;28;20470;-80
2023/06/24 09:41:25;;;;;;;9.57;8.57;;;;;;;;;;5079263;28;20899;-79
2023/06/24 09:43:51;;;;;;;12.17;7.37;;;;;;;;;;5077889;28;20462;-79
2023/06/24 09:46:18;;;;;;;10.00;7.80;;;;;;;;;;5070805;28;20471;-79
2023/06/24 09:48:44;;;;;;;9.43;7.13;;;;;;;;;;5085405;28;20459;-80
2023/06/24 09:51:13;;;;;;;12.20;7.80;;;;;;;;;;5065373;28;20519;-80
2023/06/24 09:53:39;;;;;;;12.73;8.90;;;;;;;;;;5081579;28;20462;-80
2023/06/24 09:56:07;;;;;;;12.70;9.10;;;;;;;;;;5075469;28;21056;-80
2023/06/24 09:58:36;;;;;;;10.60;8.50;;;;;;;;;;5092933;28;20470;-79
2023/06/24 10:01:05;;;;;;;10.10;8.40;;;;;;;;;;5083720;28;20470;-80
2023/06/24 10:03:34;;;;;;;8.90;6.63;;;;;;;;;;5079641;28;20457;-79
2023/06/24 10:06:00;;;;;;;10.37;8.43;;;;;;;;;;5085734;28;20479;-81
2023/06/24 10:08:28;;;;;;;12.20;8.00;;;;;;;;;;5083737;28;20852;-81
2023/06/24 10:10:55;;;;;;;11.07;7.67;;;;;;;;;;5076963;28;20466;-81
2023/06/24 10:13:21;;;;;;;9.07;8.10;;;;;;;;;;5081268;28;20494;-80
2023/06/24 10:15:49;;;;;;;10.00;7.83;;;;;;;;;;5083220;28;21010;-80
2023/06/24 10:18:34;;;;;;;11.20;7.87;;;;;;;;;;5079580;28;20478;-79
2023/06/24 10:21:01;;;;;;;8.07;7.27;;;;;;;;;;5089241;28;20470;-80
2023/06/24 10:23:32;;;;;;;8.40;7.50;;;;;;;;;;5081800;28;20463;-81
2023/06/24 10:25:58;;;;;;;9.43;8.20;;;;;;;;;;5066510;28;20474;-80
2023/06/24 10:28:25;;;;;;;9.93;7.30;;;;;;;;;;5083428;28;20479;-80
2023/06/24 10:30:56;;;;;;;9.80;7.10;;;;;;;;;;5079261;28;21105;-80
2023/06/24 10:33:24;;;;;;;8.10;6.80;;;;;;;;;;5080586;28;20466;-80
2023/06/24 10:35:52;;;;;;;8.63;7.70;;;;;;;;;;5081208;28;20466;-80
2023/06/24 10:38:19;;;;;;;8.93;7.87;;;;;;;;;;5082658;28;20547;-80
2023/06/24 10:40:49;;;;;;;9.73;8.07;;;;;;;;;;5056978;28;20506;-80
2023/06/24 10:43:29;;;;;;;10.83;6.80;;;;;;;;;;5082555;28;20469;-80
2023/06/24 10:45:56;;;;;;;8.27;7.47;;;;;;;;;;5076327;28;20478;-80
2023/06/24 10:48:22;;;;;;;8.83;7.23;;;;;;;;;;5085411;28;20474;-80
2023/06/24 10:50:50;;;;;;;19.53;7.57;;;;;;;;;;5077384;28;20482;-80
2023/06/24 10:53:19;;;;;;;9.50;7.23;;;;;;;;;;5070354;28;20460;-80
2023/06/24 10:55:47;;;;;;;7.90;6.67;;;;;;;;;;5079821;28;20469;-80
2023/06/24 10:58:15;;;;;;;11.30;8.47;;;;;;;;;;5078065;28;20528;-80
2023/06/24 11:00:42;;;;;;;8.40;7.60;;;;;;;;;;5066625;28;20549;-78
2023/06/24 11:03:08;;;;;;;7.67;6.50;;;;;;;;;;5073464;28;20455;-79
2023/06/24 11:05:35;;;;;;;8.00;6.60;;;;;;;;;;5078251;28;20474;-79
2023/06/24 11:08:01;;;;;;;8.67;7.80;;;;;;;;;;5081177;28;20466;-79
2023/06/24 11:10:27;;;;;;;8.07;6.37;;;;;;;;;;5066080;28;20482;-79
2023/06/24 11:12:57;;;;;;;7.30;6.60;;;;;;;;;;5075472;28;20835;-79
2023/06/24 11:15:23;;;;;;;7.90;6.60;;;;;;;;;;5077168;28;20900;-79
2023/06/24 11:17:51;;;;;;;8.43;7.47;;;;;;;;;;5073705;28;20475;-78
2023/06/24 11:20:17;;;;;;;8.10;7.30;;;;;;;;;;5083999;28;20481;-78
2023/06/24 11:22:45;;;;;;;7.63;6.90;;;;;;;;;;5077645;28;20483;-79
2023/06/24 11:25:19;;;;;;;8.77;7.97;;;;;;;;;;5074507;28;20467;-79
2023/06/24 11:27:46;;;;;;;8.80;7.50;;;;;;;;;;5068059;28;20602;-78
2023/06/24 11:30:15;;;;;;;10.20;7.27;;;;;;;;;;5083675;28;21015;-80
2023/06/24 11:32:41;;;;;;;13.03;6.50;;;;;;;;;;5089944;28;20442;-79
2023/06/24 11:35:10;;;;;;;9.40;7.30;;;;;;;;;;5080013;28;20474;-80
2023/06/24 11:37:36;;;;;;;9.30;7.03;;;;;;;;;;5084353;28;20470;-81
2023/06/24 11:40:04;;;;;;;9.20;8.30;;;;;;;;;;5082138;28;20477;-80
2023/06/24 11:42:32;;;;;;;9.90;8.90;;;;;;;;;;5080246;28;20443;-80
2023/06/24 11:45:03;;;;;;;7.73;7.03;;;;;;;;;;5081295;28;20836;-80
2023/06/24 11:47:34;;;;;;;9.10;8.13;;;;;;;;;;5078998;28;20494;-80
2023/06/24 11:50:02;;;;;;;11.60;8.60;;;;;;;;;;5080996;28;20469;-79
2023/06/24 11:52:33;;;;;;;10.43;9.33;;;;;;;;;;5081329;28;20476;-80
2023/06/24 11:54:59;;;;;;;10.37;9.27;;;;;;;;;;5081164;28;20474;-80
2023/06/24 11:57:40;;;;;;;9.10;8.17;;;;;;;;;;5082874;28;20831;-79
2023/06/24 12:00:12;;;;;;;8.43;7.63;;;;;;;;;;5074751;28;20463;-80
2023/06/24 12:02:40;;;;;;;12.57;9.03;;;;;;;;;;5079205;28;20438;-80
2023/06/24 12:05:07;;;;;;;9.00;8.20;;;;;;;;;;5075219;28;20463;-79
2023/06/24 12:07:33;;;;;;;11.70;8.67;;;;;;;;;;5072572;28;20478;-80
2023/06/24 12:10:00;;;;;;;9.47;8.67;;;;;;;;;;5081402;28;20471;-82
2023/06/24 12:12:26;;;;;;;10.73;8.43;;;;;;;;;;5082072;28;20446;-80
2023/06/24 12:14:54;;;;;;;9.03;8.23;;;;;;;;;;5080515;28;20455;-80
2023/06/24 12:17:21;;;;;;;12.47;8.20;;;;;;;;;;5080866;28;20517;-79
2023/06/24 12:19:49;;;;;;;9.93;8.93;;;;;;;;;;5078313;28;20456;-79
2023/06/24 12:22:15;;;;;;;8.00;7.30;;;;;;;;;;5086005;28;20518;-80
2023/06/24 12:24:43;;;;;;;7.27;6.67;;;;;;;;;;5076856;28;20805;-80
2023/06/24 12:27:09;;;;;;;8.40;7.70;;;;;;;;;;5074925;28;20482;-80
2023/06/24 12:29:36;;;;;;;10.23;7.30;;;;;;;;;;5079378;28;20453;-81
2023/06/24 12:32:03;;;;;;;7.93;7.23;;;;;;;;;;5075656;28;20451;-80
2023/06/24 12:34:30;;;;;;;9.57;8.63;;;;;;;;;;5080494;28;20473;-81
2023/06/24 12:36:59;;;;;;;8.23;7.50;;;;;;;;;;5083153;28;20470;-80
2023/06/24 12:39:26;;;;;;;8.27;7.43;;;;;;;;;;5079819;28;20934;-81
2023/06/24 12:41:52;;;;;;;8.73;7.67;;;;;;;;;;5065604;28;20992;-81
2023/06/24 12:44:18;;;;;;;9.63;7.90;;;;;;;;;;5082644;28;20923;-81
2023/06/24 12:46:45;;;;;;;8.80;8.00;;;;;;;;;;5082844;28;20478;-79
2023/06/24 12:49:11;;;;;;;9.50;8.60;;;;;;;;;;5076629;28;20466;-80
2023/06/24 12:51:37;;;;;;;8.37;7.57;;;;;;;;;;5076618;28;20995;-81
2023/06/24 12:54:05;;;;;;;8.23;7.13;;;;;;;;;;5069893;28;20806;-80
2023/06/24 12:56:32;;;;;;;8.97;7.67;;;;;;;;;;5083995;28;20458;-80
2023/06/24 12:58:58;;;;;;;9.63;8.67;;;;;;;;;;5081255;28;20478;-80
2023/06/24 13:01:24;;;;;;;11.17;8.13;;;;;;;;;;5083652;28;20454;-80
2023/06/24 13:03:51;;;;;;;8.60;7.70;;;;;;;;;;5076962;28;20939;-81
2023/06/24 13:06:17;;;;;;;9.23;8.03;;;;;;;;;;5083610;28;20475;-80
2023/06/24 13:08:44;;;;;;;8.97;8.17;;;;;;;;;;5089607;28;20462;-81
2023/06/24 13:11:12;;;;;;;8.97;8.07;;;;;;;;;;5078028;28;20531;-80
2023/06/24 13:13:38;;;;;;;10.10;7.87;;;;;;;;;;5085524;28;20451;-80
2023/06/24 13:16:04;;;;;;;9.13;6.80;;;;;;;;;;5092385;28;20474;-80
2023/06/24 13:18:31;;;;;;;9.00;8.10;;;;;;;;;;5098408;28;20458;-81
2023/06/24 13:20:57;;;;;;;8.43;7.13;;;;;;;;;;5088734;28;20868;-82
2023/06/24 13:23:24;;;;;;;8.03;7.20;;;;;;;;;;5077906;28;20442;-79
2023/06/24 13:25:50;;;;;;;8.17;7.47;;;;;;;;;;5067278;28;20525;-81
2023/06/24 13:28:18;;;;;;;7.23;6.53;;;;;;;;;;5083650;28;20477;-79
2023/06/24 13:30:44;;;;;;;7.40;6.67;;;;;;;;;;5085593;28;20475;-80
2023/06/24 13:33:10;;;;;;;6.40;5.80;;;;;;;;;;5087725;28;20461;-80
2023/06/24 13:35:37;;;;;;;6.83;6.03;;;;;;;;;;5091469;28;20485;-80
2023/06/24 13:38:03;;;;;;;7.60;6.60;;;;;;;;;;5087893;28;20466;-80
2023/06/24 13:40:31;;;;;;;7.77;6.93;;;;;;;;;;5089543;28;20493;-79
2023/06/24 13:42:57;;;;;;;6.57;5.97;;;;;;;;;;5080392;28;20458;-80
2023/06/24 13:45:25;;;;;;;8.20;6.50;;;;;;;;;;5078194;28;20482;-78
2023/06/24 13:47:51;;;;;;;6.50;5.77;;;;;;;;;;5079655;28;20479;-79
2023/06/24 13:50:17;;;;;;;7.07;5.93;;;;;;;;;;5079296;28;20467;-79
2023/06/24 13:52:44;;;;;;;10.33;6.53;;;;;;;;;;5082110;28;20461;-79
2023/06/24 13:55:10;;;;;;;6.60;6.00;;;;;;;;;;5081749;28;20473;-79
2023/06/24 13:57:36;;;;;;;6.03;5.53;;;;;;;;;;5080028;28;20483;-79
2023/06/24 14:00:03;;;;;;;9.10;6.43;;;;;;;;;;5079110;28;20467;-78
2023/06/24 14:02:31;;;;;;;9.83;6.30;;;;;;;;;;5087507;28;20454;-81
2023/06/24 14:04:59;;;;;;;6.53;5.60;;;;;;;;;;5077930;28;20956;-79
2023/06/24 14:07:25;;;;;;;9.60;6.27;;;;;;;;;;5080732;28;20507;-80
2023/06/24 14:09:51;;;;;;;7.97;5.90;;;;;;;;;;5084588;28;21078;-79
2023/06/24 14:12:18;;;;;;;7.70;6.40;;;;;;;;;;5072825;28;20852;-78
2023/06/24 14:14:44;;;;;;;6.73;6.10;;;;;;;;;;5086479;28;20453;-78
2023/06/24 14:17:12;;;;;;;6.87;5.93;;;;;;;;;;5080319;28;20466;-78
2023/06/24 14:19:40;;;;;;;7.97;6.33;;;;;;;;;;5082704;28;20450;-79
2023/06/24 14:22:07;;;;;;;7.47;5.50;;;;;;;;;;5088984;28;20459;-79
2023/06/24 14:24:33;;;;;;;6.37;5.70;;;;;;;;;;5091221;28;20442;-79
2023/06/24 14:27:00;;;;;;;6.70;6.00;;;;;;;;;;5074691;28;20491;-78
2023/06/24 14:29:26;;;;;;;9.30;7.23;;;;;;;;;;5078008;28;20929;-79